Cuovddatmohkki, Norway

5:48 AM CET on November 01, 2014 (GMT +0100)
Alta | Change Station
CLOSE
Current Station
Airport
Location: Alta Lufthavn,
Elevation: 10 ft
Nearby Weather Stations

Elev 10 ft 69.98 °N, 23.36 °E | Updated 58 minutes ago

Mostly Cloudy
Mostly Cloudy
25 °F
Feels Like 20 °F
N
4
Wind Variable Wind from SSE

Today
High -- | Low -- °F
--% Chance of Precip.
Yesterday
High -- | Low -- °F
Precip. -- in
7:45 AM 2:25 PM
Waxing Gibbous, 62% visible
Pressure 30.21 in
Visibility 6.2 miles
Clouds Scattered Clouds 4900 ft
Mostly Cloudy 8200 ft
Windchill 20 °F
Dew Point 18 °F
Humidity 74%
Rainfall 0.00 in
Snow Depth Not available.
UV 0 out of 12
Pollen Not available.
Air Quality Not available.
Flu Activity Not available.
METAR ENAT 010350Z 16003KT 9999 SCT049 BKN082 M04/M08 Q1023 RMK WIND 700FT 15013KT

More Conditions Fewer Conditions

Pressure 30.21 in
Visibility 6.2 miles
Clouds Scattered Clouds 4900 ft
Mostly Cloudy 8200 ft
Windchill 20 °F
Dew Point 18 °F
Humidity 74%
Rainfall 0.00 in
Snow Depth Not available.
UV 0 out of 12
Pollen Not available.
Air Quality Not available.
Flu Activity Not available.
METAR ENAT 010350Z 16003KT 9999 SCT049 BKN082 M04/M08 Q1023 RMK WIND 700FT 15013KT

More Conditions Fewer Conditions

10-Day Weather Forecast

Almanac

Astronomy

Nov. 01, 2014 Rise Set
Actual Time
Civil Twilight
Nautical Twilight
Astronomical Twilight
Moon
Length of Visible Light
Length of Day
Tomorrow will be .
, % of the Moon is Illuminated

Today's Extremes

Country Highs Country Lows

Community

WunderPhotos

Upload Photos

1,766,854 photos uploaded!

WunderBlogs® & News

Nearby

Air Quality

  Air Quality AQ Index Pollutant
Not available.

Snow Depth

Station Depth Elevation

Earthquake Activity

City Distance Mag. Time & Date
Minimum magnitude displayed is 2.5.

Coastal Water Temperatures

Place Temperature

Nearby Weather Stations